createdAt,value
2018-06-25T00:02:16.373Z,2.30
2018-06-25T00:04:44.499Z,3.07
2018-06-25T00:07:12.465Z,2.30
2018-06-25T00:09:40.511Z,2.50
2018-06-25T00:12:08.628Z,2.37
2018-06-25T00:14:36.692Z,2.13
2018-06-25T00:17:04.739Z,2.40
2018-06-25T00:19:32.838Z,2.70
2018-06-25T00:22:00.870Z,1.90
2018-06-25T00:24:28.964Z,1.93
2018-06-25T00:26:57.064Z,2.10
2018-06-25T00:29:25.053Z,2.30
2018-06-25T00:31:53.168Z,2.30
2018-06-25T00:34:21.299Z,2.00
2018-06-25T00:36:49.374Z,2.20
2018-06-25T00:39:17.351Z,2.50
2018-06-25T00:41:45.389Z,2.13
2018-06-25T00:44:16.662Z,2.17
2018-06-25T00:49:26.390Z,1.93
2018-06-25T00:51:54.414Z,2.30
2018-06-25T00:54:22.482Z,2.40
2018-06-25T00:56:50.505Z,2.10
2018-06-25T00:59:29.622Z,2.20
2018-06-25T01:01:57.637Z,2.23
2018-06-25T01:04:25.718Z,2.10
2018-06-25T01:06:53.816Z,2.13
2018-06-25T01:09:21.853Z,2.33
2018-06-25T01:11:49.912Z,2.33
2018-06-25T01:14:17.947Z,2.50
2018-06-25T01:16:45.954Z,2.23
2018-06-25T01:19:14.034Z,2.30
2018-06-25T01:21:42.036Z,2.30
2018-06-25T01:24:10.083Z,2.50
2018-06-25T01:26:38.232Z,2.47
2018-06-25T01:29:06.204Z,2.00
2018-06-25T01:31:34.575Z,1.97
2018-06-25T01:34:02.564Z,2.37
2018-06-25T01:36:30.677Z,2.00
2018-06-25T01:38:58.816Z,2.23
2018-06-25T01:41:26.844Z,2.40
2018-06-25T01:43:54.847Z,1.80
2018-06-25T01:46:22.878Z,2.63
2018-06-25T01:48:50.836Z,2.33
2018-06-25T01:51:18.857Z,1.87
2018-06-25T01:53:46.925Z,2.20
2018-06-25T01:56:14.949Z,2.40
2018-06-25T01:58:43.031Z,2.10
2018-06-25T02:01:11.075Z,3.00
2018-06-25T02:03:39.144Z,2.10
2018-06-25T02:06:07.359Z,1.93
2018-06-25T02:08:35.558Z,2.27
2018-06-25T02:11:03.652Z,2.67
2018-06-25T02:13:31.730Z,2.53
2018-06-25T02:15:59.849Z,2.47
2018-06-25T02:18:27.877Z,2.13
2018-06-25T02:20:55.886Z,2.13
2018-06-25T02:23:23.944Z,2.23
2018-06-25T02:25:51.955Z,2.20
2018-06-25T02:28:20.039Z,2.30
2018-06-25T02:30:48.146Z,2.40
2018-06-25T02:33:16.146Z,2.20
2018-06-25T02:35:44.161Z,2.30
2018-06-25T02:38:12.255Z,2.30
2018-06-25T02:40:40.323Z,2.73
2018-06-25T02:43:08.355Z,2.83
2018-06-25T02:45:36.336Z,2.23
2018-06-25T02:48:04.363Z,2.50
2018-06-25T02:50:32.449Z,2.27
2018-06-25T02:53:00.604Z,2.47
2018-06-25T02:55:28.594Z,2.60
2018-06-25T02:57:56.655Z,2.10
2018-06-25T03:00:24.791Z,2.03
2018-06-25T03:02:52.831Z,2.53
2018-06-25T03:05:20.901Z,2.20
2018-06-25T03:07:48.871Z,2.60
2018-06-25T03:10:17.024Z,2.23
2018-06-25T03:12:45.099Z,2.37
2018-06-25T03:15:13.288Z,2.23
2018-06-25T03:17:41.394Z,2.57
2018-06-25T03:20:09.745Z,2.00
2018-06-25T03:22:37.793Z,2.27
2018-06-25T03:25:05.787Z,2.03
2018-06-25T03:27:33.920Z,2.57
2018-06-25T03:30:02.001Z,2.60
2018-06-25T03:32:30.257Z,2.27
2018-06-25T03:34:58.439Z,2.10
2018-06-25T03:37:26.554Z,2.07
2018-06-25T03:39:54.586Z,2.23
2018-06-25T03:42:22.601Z,2.30
2018-06-25T03:44:50.873Z,2.43
2018-06-25T03:47:18.924Z,2.70
2018-06-25T03:49:47.016Z,2.30
2018-06-25T03:52:15.158Z,2.40
2018-06-25T03:54:43.297Z,2.30
2018-06-25T03:57:11.407Z,2.80
2018-06-25T03:59:39.731Z,2.10
2018-06-25T04:02:07.887Z,2.63
2018-06-25T04:04:35.889Z,2.77
2018-06-25T04:07:04.085Z,2.37
2018-06-25T04:09:32.110Z,2.50
2018-06-25T04:12:00.176Z,2.30
2018-06-25T04:14:28.337Z,2.33
2018-06-25T04:16:56.755Z,2.70
2018-06-25T04:19:24.833Z,2.00
2018-06-25T04:21:52.902Z,2.40
2018-06-25T04:24:21.211Z,2.60
2018-06-25T04:26:49.256Z,2.53
2018-06-25T04:29:17.252Z,2.53
2018-06-25T04:31:45.418Z,2.47
2018-06-25T04:34:14.824Z,2.53
2018-06-25T04:36:42.955Z,2.33
2018-06-25T04:39:11.171Z,2.03
2018-06-25T04:41:39.275Z,2.53
2018-06-25T04:44:07.311Z,2.30
2018-06-25T04:46:35.290Z,2.20
2018-06-25T04:49:03.471Z,2.00
2018-06-25T04:51:31.733Z,2.50
2018-06-25T04:54:00.147Z,2.40
2018-06-25T04:56:28.285Z,2.40
2018-06-25T04:58:56.627Z,2.40
2018-06-25T05:01:24.852Z,2.13
2018-06-25T05:03:53.547Z,2.57
2018-06-25T05:06:22.016Z,1.87
2018-06-25T05:08:50.166Z,2.30
2018-06-25T05:11:18.253Z,2.00
2018-06-25T05:13:47.061Z,2.30
2018-06-25T05:16:15.862Z,2.07
2018-06-25T05:18:48.830Z,2.13
2018-06-25T05:21:19.385Z,2.10
2018-06-25T05:23:48.693Z,1.83
2018-06-25T05:26:17.441Z,2.17
2018-06-25T05:28:46.258Z,2.20
2018-06-25T05:31:21.961Z,2.00
2018-06-25T05:33:52.327Z,2.37
2018-06-25T05:36:21.298Z,1.80
2018-06-25T05:38:50.150Z,2.27
2018-06-25T05:41:18.571Z,2.53
2018-06-25T05:43:47.267Z,2.80
2018-06-25T05:46:16.240Z,2.00
2018-06-25T05:48:44.617Z,2.40
2018-06-25T05:51:13.425Z,2.07
2018-06-25T05:53:42.085Z,2.33
2018-06-25T05:56:10.546Z,2.00
2018-06-25T05:58:38.946Z,2.07
2018-06-25T06:01:07.523Z,2.40
2018-06-25T06:03:36.200Z,2.13
2018-06-25T06:06:05.904Z,1.80
2018-06-25T06:08:34.486Z,2.20
2018-06-25T06:11:03.704Z,2.10
2018-06-25T06:13:32.172Z,2.07
2018-06-25T06:16:01.269Z,2.10
2018-06-25T06:18:29.963Z,1.87
2018-06-25T06:20:58.581Z,2.53
2018-06-25T06:23:27.076Z,2.40
2018-06-25T06:25:56.143Z,2.00
2018-06-25T06:28:24.533Z,2.13
2018-06-25T06:30:53.041Z,2.53
2018-06-25T06:33:21.567Z,3.03
2018-06-25T06:35:50.666Z,2.80
2018-06-25T06:38:19.543Z,2.87
2018-06-25T06:40:48.383Z,3.00
2018-06-25T06:43:18.191Z,2.73
2018-06-25T06:45:47.161Z,3.03
2018-06-25T06:48:15.929Z,3.27
2018-06-25T06:50:44.927Z,3.20
2018-06-25T06:53:13.492Z,3.43
2018-06-25T06:55:42.210Z,2.83
2018-06-25T06:58:11.195Z,3.30
2018-06-25T07:00:39.866Z,3.90
2018-06-25T07:03:08.735Z,3.20
2018-06-25T07:05:37.743Z,2.93
2018-06-25T07:08:06.561Z,2.53
2018-06-25T07:10:35.252Z,3.97
2018-06-25T07:13:04.128Z,2.80
2018-06-25T07:15:32.780Z,3.40
2018-06-25T07:18:01.630Z,2.97
2018-06-25T07:20:30.021Z,3.27
2018-06-25T07:22:58.318Z,3.30
2018-06-25T07:25:26.628Z,3.30
2018-06-25T07:27:55.035Z,3.67
2018-06-25T07:30:23.591Z,3.27
2018-06-25T07:32:51.845Z,3.70
2018-06-25T07:35:20.103Z,4.37
2018-06-25T07:37:48.364Z,3.80
2018-06-25T07:40:16.780Z,3.73
2018-06-25T07:42:45.090Z,4.60
2018-06-25T07:45:13.207Z,4.03
2018-06-25T07:47:41.855Z,3.93
2018-06-25T07:50:10.285Z,3.37
2018-06-25T07:52:38.579Z,4.13
2018-06-25T07:55:06.881Z,3.47
2018-06-25T07:57:35.219Z,3.93
2018-06-25T08:00:03.935Z,4.53
2018-06-25T08:02:32.099Z,3.80
2018-06-25T08:05:00.425Z,4.67
2018-06-25T08:07:28.658Z,4.57
2018-06-25T08:09:56.881Z,4.30
2018-06-25T08:12:25.167Z,4.40
2018-06-25T08:14:53.450Z,5.13
2018-06-25T08:17:22.210Z,4.97
2018-06-25T08:19:50.602Z,4.90
2018-06-25T08:22:19.151Z,5.30
2018-06-25T08:24:47.467Z,5.53
2018-06-25T08:27:16.220Z,6.00
2018-06-25T08:29:44.452Z,5.53
2018-06-25T08:32:12.589Z,5.73
2018-06-25T08:34:40.768Z,5.97
2018-06-25T08:37:09.028Z,6.33
2018-06-25T08:39:37.173Z,6.57
2018-06-25T08:42:05.806Z,6.80
2018-06-25T08:44:34.437Z,7.43
2018-06-25T08:47:02.763Z,7.67
2018-06-25T08:49:31.258Z,6.67
2018-06-25T08:52:00.006Z,6.03
2018-06-25T08:54:28.585Z,5.87
2018-06-25T08:56:57.329Z,6.20
2018-06-25T08:59:25.640Z,5.33
2018-06-25T09:01:54.202Z,5.43
2018-06-25T09:04:22.734Z,5.43
2018-06-25T09:06:50.964Z,6.33
2018-06-25T09:09:19.209Z,5.63
2018-06-25T09:11:47.477Z,5.80
2018-06-25T09:14:15.813Z,6.63
2018-06-25T09:16:44.110Z,6.43
2018-06-25T09:19:12.676Z,6.30
2018-06-25T09:21:41.201Z,6.17
2018-06-25T09:24:09.566Z,6.10
2018-06-25T09:26:41.746Z,6.20
2018-06-25T09:29:11.259Z,6.20
2018-06-25T09:31:39.733Z,6.23
2018-06-25T09:35:11.398Z,6.43
2018-06-25T09:37:39.740Z,6.50
2018-06-25T09:40:08.323Z,6.50
2018-06-25T09:42:36.769Z,6.57
2018-06-25T09:45:06.553Z,5.50
2018-06-25T09:47:34.850Z,5.77
2018-06-25T09:50:03.165Z,6.80
2018-06-25T09:52:31.617Z,6.40
2018-06-25T09:55:00.070Z,5.87
2018-06-25T09:57:28.426Z,6.73
2018-06-25T09:59:56.717Z,5.97
2018-06-25T10:02:25.205Z,6.23
2018-06-25T10:04:53.800Z,6.37
2018-06-25T10:07:22.861Z,6.13
2018-06-25T10:09:51.223Z,5.50
2018-06-25T10:12:19.925Z,6.13
2018-06-25T10:14:48.537Z,5.40
2018-06-25T10:17:16.945Z,5.60
2018-06-25T10:19:45.260Z,6.10
2018-06-25T10:22:13.625Z,6.33
2018-06-25T10:24:42.100Z,5.73
2018-06-25T10:27:10.316Z,6.50
2018-06-25T10:29:38.964Z,5.73
2018-06-25T10:32:07.740Z,5.77
2018-06-25T10:34:36.228Z,6.13
2018-06-25T10:37:04.785Z,5.80
2018-06-25T10:39:33.148Z,6.47
2018-06-25T10:42:01.472Z,6.57
2018-06-25T10:44:30.466Z,6.27
2018-06-25T10:46:59.018Z,6.47
2018-06-25T10:49:27.163Z,6.23
2018-06-25T10:51:55.477Z,6.23
2018-06-25T10:54:23.942Z,6.33
2018-06-25T10:56:52.303Z,5.87
2018-06-25T10:59:20.885Z,6.27
2018-06-25T11:01:49.493Z,6.20
2018-06-25T11:04:17.929Z,6.40
2018-06-25T11:06:46.097Z,7.13
2018-06-25T11:09:14.368Z,7.20
2018-06-25T11:11:42.710Z,7.00
2018-06-25T11:14:10.910Z,6.47
2018-06-25T11:16:39.455Z,6.27
2018-06-25T11:19:07.679Z,6.83
2018-06-25T11:21:35.835Z,6.43
2018-06-25T11:24:04.357Z,7.13
2018-06-25T11:26:32.780Z,6.40
2018-06-25T11:29:01.081Z,6.33
2018-06-25T11:31:29.436Z,6.50
2018-06-25T11:33:57.717Z,6.80
2018-06-25T11:36:25.950Z,6.80
2018-06-25T11:38:54.328Z,6.67
2018-06-25T11:41:22.773Z,6.07
2018-06-25T11:43:52.278Z,5.10
2018-06-25T11:46:20.581Z,3.90
2018-06-25T11:48:48.711Z,4.87
2018-06-25T11:51:17.182Z,4.30
2018-06-25T11:53:46.323Z,5.17
2018-06-25T11:56:14.910Z,5.53
2018-06-25T11:58:43.265Z,5.43
2018-06-25T12:01:11.552Z,6.13
2018-06-25T12:03:40.538Z,5.70
2018-06-25T12:06:09.040Z,5.57
2018-06-25T12:08:37.529Z,5.60
2018-06-25T12:11:06.364Z,5.80
2018-06-25T12:13:34.813Z,6.10
2018-06-25T12:16:03.307Z,5.37
2018-06-25T12:18:31.783Z,5.83
2018-06-25T12:21:00.170Z,5.60
2018-06-25T12:23:28.833Z,6.10
2018-06-25T12:25:57.282Z,5.20
2018-06-25T12:28:25.879Z,5.40
2018-06-25T12:30:54.782Z,5.60
2018-06-25T12:33:23.073Z,5.10
2018-06-25T12:35:51.373Z,5.00
2018-06-25T12:38:19.752Z,5.43
2018-06-25T12:40:48.273Z,4.90
2018-06-25T12:43:16.733Z,4.57
2018-06-25T12:45:44.971Z,4.73
2018-06-25T12:48:13.446Z,4.30
2018-06-25T12:50:41.965Z,4.77
2018-06-25T12:53:10.306Z,4.83
2018-06-25T12:55:38.653Z,4.73
2018-06-25T12:58:06.872Z,4.27
2018-06-25T13:00:35.704Z,3.90
2018-06-25T13:03:03.936Z,4.33
2018-06-25T13:05:32.237Z,4.50
2018-06-25T13:08:00.536Z,4.63
2018-06-25T13:10:28.972Z,4.10
2018-06-25T13:12:57.683Z,4.13
2018-06-25T13:15:25.913Z,3.90
2018-06-25T13:17:54.213Z,3.40
2018-06-25T13:20:22.505Z,4.33
2018-06-25T13:22:50.888Z,3.87
2018-06-25T13:25:19.209Z,3.23
2018-06-25T13:27:47.457Z,3.30
2018-06-25T13:30:15.697Z,4.07
2018-06-25T13:32:44.028Z,3.50
2018-06-25T13:35:12.225Z,3.23
2018-06-25T13:37:40.397Z,3.27
2018-06-25T13:40:08.979Z,3.13
2018-06-25T13:42:37.281Z,3.43
2018-06-25T13:45:05.523Z,3.77
2018-06-25T13:47:33.851Z,4.27
2018-06-25T13:50:02.038Z,3.50
2018-06-25T13:52:30.161Z,4.10
2018-06-25T13:54:58.436Z,3.30
2018-06-25T13:57:26.710Z,3.70
2018-06-25T13:59:54.902Z,3.27
2018-06-25T14:02:23.036Z,3.80
2018-06-25T14:04:51.335Z,3.93
2018-06-25T14:07:19.458Z,3.77
2018-06-25T14:09:47.682Z,4.17
2018-06-25T14:12:15.881Z,3.67
2018-06-25T14:14:44.326Z,3.83
2018-06-25T14:17:12.938Z,4.03
2018-06-25T14:19:41.150Z,3.27
2018-06-25T14:22:09.375Z,3.93
2018-06-25T14:24:43.178Z,3.67
2018-06-25T14:27:12.308Z,4.27
2018-06-25T14:29:40.566Z,4.17
2018-06-25T14:32:14.475Z,4.50
2018-06-25T14:34:47.609Z,4.33
2018-06-25T14:37:16.374Z,4.63
2018-06-25T14:39:44.736Z,4.80
2018-06-25T14:42:13.310Z,4.73
2018-06-25T14:44:41.513Z,5.07
2018-06-25T14:47:09.984Z,5.20
2018-06-25T14:49:38.369Z,5.30
2018-06-25T14:52:06.499Z,6.20
2018-06-25T14:54:35.008Z,5.10
2018-06-25T14:57:03.466Z,5.50
2018-06-25T14:59:31.986Z,6.90
2018-06-25T15:02:00.409Z,6.87
2018-06-25T15:04:28.634Z,5.47
2018-06-25T15:06:56.972Z,5.70
2018-06-25T15:09:25.398Z,5.60
2018-06-25T15:11:53.602Z,5.60
2018-06-25T15:14:21.899Z,5.70
2018-06-25T15:16:50.389Z,5.33
2018-06-25T15:19:18.653Z,4.53
2018-06-25T15:21:46.890Z,4.37
2018-06-25T15:24:15.241Z,5.00
2018-06-25T15:26:43.571Z,4.50
2018-06-25T15:29:11.785Z,4.90
2018-06-25T15:31:40.122Z,4.87
2018-06-25T15:34:08.470Z,3.87
2018-06-25T15:36:36.700Z,4.43
2018-06-25T15:39:08.249Z,4.43
2018-06-25T15:41:36.911Z,4.03
2018-06-25T15:44:05.234Z,4.77
2018-06-25T15:46:33.752Z,3.90
2018-06-25T15:49:01.951Z,4.47
2018-06-25T15:51:30.365Z,4.10
2018-06-25T15:53:58.835Z,4.37
2018-06-25T15:56:27.133Z,3.53
2018-06-25T15:58:55.472Z,4.17
2018-06-25T16:01:23.616Z,3.73
2018-06-25T16:03:52.009Z,4.20
2018-06-25T16:06:20.516Z,3.63
2018-06-25T16:08:48.643Z,3.70
2018-06-25T16:11:16.893Z,3.40
2018-06-25T16:13:45.325Z,3.57
2018-06-25T16:16:13.513Z,3.27
2018-06-25T16:18:41.686Z,3.20
2018-06-25T16:21:10.091Z,3.93
2018-06-25T16:23:38.269Z,3.73
2018-06-25T16:26:06.682Z,3.83
2018-06-25T16:28:34.866Z,3.70
2018-06-25T16:31:03.103Z,3.17
2018-06-25T16:33:31.405Z,3.27
2018-06-25T16:35:59.721Z,3.10
2018-06-25T16:38:28.094Z,3.90
2018-06-25T16:40:57.313Z,3.67
2018-06-25T16:43:25.689Z,3.90
2018-06-25T16:45:54.079Z,3.37
2018-06-25T16:48:22.211Z,3.20
2018-06-25T16:50:50.800Z,3.40
2018-06-25T16:53:19.255Z,3.07
2018-06-25T16:55:47.352Z,3.60
2018-06-25T16:58:15.488Z,3.70
2018-06-25T17:00:43.728Z,3.50
2018-06-25T17:03:11.886Z,3.70
2018-06-25T17:05:40.060Z,4.00
2018-06-25T17:08:08.466Z,3.07
2018-06-25T17:10:36.877Z,3.40
2018-06-25T17:13:05.090Z,3.13
2018-06-25T17:15:33.743Z,3.37
2018-06-25T17:18:03.021Z,3.20
2018-06-25T17:20:32.184Z,3.47
2018-06-25T17:23:00.559Z,3.43
2018-06-25T17:25:33.168Z,3.27
2018-06-25T17:28:01.396Z,3.57
2018-06-25T17:30:29.617Z,3.50
2018-06-25T17:32:57.850Z,3.67
2018-06-25T17:35:26.019Z,3.07
2018-06-25T17:37:54.417Z,3.70
2018-06-25T17:40:22.559Z,3.00
2018-06-25T17:42:50.757Z,3.50
2018-06-25T17:45:19.243Z,3.50
2018-06-25T17:47:47.556Z,3.70
2018-06-25T17:50:16.459Z,3.30
2018-06-25T17:52:44.976Z,3.67
2018-06-25T17:55:13.320Z,3.27
2018-06-25T17:57:41.650Z,3.53
2018-06-25T18:00:10.055Z,3.87
2018-06-25T18:02:38.462Z,3.67
2018-06-25T18:05:06.800Z,3.63
2018-06-25T18:07:35.089Z,3.40
2018-06-25T18:10:03.475Z,3.90
2018-06-25T18:12:31.925Z,3.47
2018-06-25T18:15:00.218Z,3.60
2018-06-25T18:17:28.315Z,3.63
2018-06-25T18:19:56.660Z,3.70
2018-06-25T18:22:25.204Z,3.80
2018-06-25T18:24:53.728Z,4.10
2018-06-25T18:27:22.187Z,3.43
2018-06-25T18:29:51.093Z,4.17
2018-06-25T18:32:19.445Z,3.97
2018-06-25T18:34:47.643Z,3.83
2018-06-25T18:37:16.027Z,4.10
2018-06-25T18:39:44.400Z,3.93
2018-06-25T18:42:12.630Z,4.00
2018-06-25T18:44:41.087Z,3.47
2018-06-25T18:47:09.340Z,3.80
2018-06-25T18:49:37.621Z,4.00
2018-06-25T18:52:05.908Z,3.90
2018-06-25T18:54:34.052Z,3.70
2018-06-25T18:57:02.300Z,3.77
2018-06-25T18:59:30.524Z,4.03
2018-06-25T19:01:58.675Z,3.93
2018-06-25T19:04:26.841Z,3.70
2018-06-25T19:06:55.310Z,3.77
2018-06-25T19:09:23.658Z,4.07
2018-06-25T19:11:52.052Z,4.50
2018-06-25T19:14:26.331Z,3.80
2018-06-25T19:16:54.644Z,4.00
2018-06-25T19:19:22.938Z,4.13
2018-06-25T19:21:51.304Z,3.80
2018-06-25T19:24:19.539Z,4.10
2018-06-25T19:26:47.818Z,4.27
2018-06-25T19:29:16.125Z,4.23
2018-06-25T19:31:44.210Z,3.70
2018-06-25T19:34:12.512Z,4.33
2018-06-25T19:36:40.726Z,5.10
2018-06-25T19:39:11.423Z,4.50
2018-06-25T19:41:40.056Z,4.53
2018-06-25T19:44:08.843Z,4.57
2018-06-25T19:46:37.113Z,4.63
2018-06-25T19:49:05.904Z,4.13
2018-06-25T19:51:34.210Z,4.23
2018-06-25T19:54:02.559Z,4.20
2018-06-25T19:56:30.801Z,4.73
2018-06-25T19:58:59.013Z,4.73
2018-06-25T20:01:27.269Z,4.13
2018-06-25T20:03:55.747Z,4.17
2018-06-25T20:06:24.105Z,4.33
2018-06-25T20:08:52.257Z,4.50
2018-06-25T20:11:20.618Z,4.40
2018-06-25T20:13:49.168Z,5.07
2018-06-25T20:16:17.455Z,4.40
2018-06-25T20:18:45.879Z,4.43
2018-06-25T20:21:14.778Z,5.00
2018-06-25T20:23:43.326Z,4.70
2018-06-25T20:26:11.580Z,4.37
2018-06-25T20:28:40.014Z,4.30
2018-06-25T20:31:08.342Z,5.03
2018-06-25T20:33:36.728Z,4.80
2018-06-25T20:36:06.170Z,4.80
2018-06-25T20:38:34.624Z,4.50
2018-06-25T20:41:02.776Z,5.17
2018-06-25T20:43:31.116Z,4.47
2018-06-25T20:46:03.173Z,4.90
2018-06-25T20:48:31.578Z,4.47
2018-06-25T20:50:59.683Z,4.43
2018-06-25T20:53:27.979Z,4.97
2018-06-25T20:55:57.051Z,4.60
2018-06-25T20:58:25.714Z,5.07
2018-06-25T21:00:53.853Z,4.60
2018-06-25T21:03:22.044Z,4.73
2018-06-25T21:05:50.294Z,6.37
2018-06-25T21:08:18.477Z,4.50
2018-06-25T21:10:46.812Z,4.77
2018-06-25T21:13:15.150Z,5.40
2018-06-25T21:15:43.476Z,5.07
2018-06-25T21:18:11.773Z,4.80
2018-06-25T21:20:40.096Z,4.67
2018-06-25T21:23:08.235Z,4.37
2018-06-25T21:25:36.481Z,4.73
2018-06-25T21:28:04.632Z,4.63
2018-06-25T21:30:32.924Z,3.57
2018-06-25T21:33:01.301Z,4.33
2018-06-25T21:35:29.654Z,3.47
2018-06-25T21:37:57.868Z,3.90
2018-06-25T21:40:26.293Z,4.13
2018-06-25T21:42:54.399Z,4.57
2018-06-25T21:45:22.632Z,3.40
2018-06-25T21:47:50.784Z,3.60
2018-06-25T21:50:18.862Z,4.20
2018-06-25T21:52:47.224Z,3.60
2018-06-25T21:55:15.323Z,4.37
2018-06-25T21:57:43.449Z,4.00
2018-06-25T22:00:12.924Z,4.20
2018-06-25T22:02:41.194Z,3.97
2018-06-25T22:05:09.464Z,3.50
2018-06-25T22:07:37.546Z,3.40
2018-06-25T22:10:06.258Z,3.40
2018-06-25T22:12:34.530Z,3.20
2018-06-25T22:15:02.690Z,2.60
2018-06-25T22:17:30.782Z,3.03
2018-06-25T22:19:58.968Z,3.20
2018-06-25T22:22:27.020Z,2.83
2018-06-25T22:24:55.136Z,3.03
2018-06-25T22:27:23.200Z,4.03
2018-06-25T22:29:51.487Z,3.43
2018-06-25T22:32:19.924Z,3.17
2018-06-25T22:34:47.959Z,3.10
2018-06-25T22:37:16.045Z,2.73
2018-06-25T22:39:44.146Z,2.53
2018-06-25T22:42:12.186Z,2.60
2018-06-25T22:44:40.318Z,2.70
2018-06-25T22:47:08.459Z,2.30
2018-06-25T22:49:36.498Z,2.43
2018-06-25T22:52:04.801Z,2.67
2018-06-25T22:54:32.924Z,2.30
2018-06-25T22:57:01.012Z,2.60
2018-06-25T22:59:29.108Z,2.30
2018-06-25T23:01:57.199Z,2.53
2018-06-25T23:04:25.263Z,2.50
2018-06-25T23:06:53.398Z,2.47
2018-06-25T23:09:21.479Z,2.23
2018-06-25T23:11:49.627Z,2.90
2018-06-25T23:14:17.734Z,2.80
2018-06-25T23:16:46.006Z,2.70
2018-06-25T23:19:14.265Z,2.73
2018-06-25T23:21:42.315Z,2.67
2018-06-25T23:24:10.413Z,2.40
2018-06-25T23:26:38.730Z,2.50
2018-06-25T23:29:06.859Z,2.70
2018-06-25T23:31:34.989Z,2.47
2018-06-25T23:34:03.177Z,2.00
2018-06-25T23:36:31.279Z,2.57
2018-06-25T23:38:59.424Z,2.50
2018-06-25T23:41:27.502Z,2.40
2018-06-25T23:43:55.575Z,2.30
2018-06-25T23:46:23.813Z,1.97
2018-06-25T23:48:51.977Z,2.47
2018-06-25T23:51:19.954Z,2.10
2018-06-25T23:53:48.041Z,2.00
2018-06-25T23:56:16.306Z,2.17
2018-06-25T23:58:44.522Z,2.10
